Time;durP1;ratioP1;P1;durP2;ratioP2;P2;SDS_P1;SDS_P2;PMS_P1;PMS_P2;Temp;Humidity;BMP_temperature;BMP_pressure;BME280_temperature;BME280_humidity;BME280_pressure;Samples;Min_cycle;Max_cycle;Signal;HPM_P1;HPM_P2
2021/09/17 00:02:16;;;;;;;47.10;26.23;;;;;;;10.15;69.28;101177.44;1792377;80;20922;-67
2021/09/17 00:04:43;;;;;;;47.27;27.32;;;;;;;10.18;69.13;101179.05;1792579;80;21010;-67
2021/09/17 00:07:12;;;;;;;46.85;26.82;;;;;;;10.20;68.96;101181.61;1792448;78;20848;-67
2021/09/17 00:09:38;;;;;;;50.25;27.85;;;;;;;10.15;68.93;101180.52;1792545;80;21333;-68
2021/09/17 00:12:07;;;;;;;50.98;27.40;;;;;;;10.13;69.04;101183.21;1792607;80;20958;-66
2021/09/17 00:14:36;;;;;;;45.23;27.80;;;;;;;10.12;68.92;101187.23;1792619;78;20951;-66
2021/09/17 00:17:05;;;;;;;40.88;24.30;;;;;;;10.08;68.77;101185.69;1792522;80;20954;-67
2021/09/17 00:19:33;;;;;;;44.25;25.02;;;;;;;10.04;68.79;101180.20;1792537;78;21439;-66
2021/09/17 00:22:02;;;;;;;40.98;23.90;;;;;;;9.97;68.94;101184.89;1792402;80;20898;-67
2021/09/17 00:24:32;;;;;;;39.33;22.35;;;;;;;9.89;69.15;101183.09;1792546;79;20868;-67
2021/09/17 00:27:01;;;;;;;38.58;23.18;;;;;;;9.82;69.42;101186.94;1792640;80;21029;-67
2021/09/17 00:29:28;;;;;;;38.70;21.93;;;;;;;9.74;69.66;101186.84;1792472;80;20859;-67
2021/09/17 00:31:55;;;;;;;34.33;22.87;;;;;;;9.71;69.98;101186.13;1792746;80;21939;-67
2021/09/17 00:34:24;;;;;;;39.40;21.37;;;;;;;9.68;70.25;101180.58;1792376;78;20939;-66
2021/09/17 00:36:51;;;;;;;38.70;22.82;;;;;;;9.68;70.40;101177.13;1786308;80;21449;-67
2021/09/17 00:39:18;;;;;;;32.67;19.80;;;;;;;9.68;70.64;101174.50;1781419;80;21346;-67
2021/09/17 00:41:44;;;;;;;33.42;22.67;;;;;;;9.70;70.70;101174.81;1781602;80;20938;-68
2021/09/17 00:44:11;;;;;;;37.70;23.12;;;;;;;9.72;70.72;101174.75;1781646;80;21091;-66
2021/09/17 00:46:40;;;;;;;34.25;20.30;;;;;;;9.74;70.50;101179.45;1781339;80;21441;-67
2021/09/17 00:49:06;;;;;;;35.08;21.57;;;;;;;9.74;70.13;101175.53;1743791;82;20952;-67
2021/09/17 00:51:33;;;;;;;35.00;23.07;;;;;;;9.67;70.10;101170.17;1717457;82;20940;-67
2021/09/17 00:54:00;;;;;;;35.23;20.62;;;;;;;9.61;70.42;101168.70;1780896;80;20868;-67
2021/09/17 00:56:28;;;;;;;39.98;22.35;;;;;;;9.63;70.50;101171.27;1751176;80;21350;-66
2021/09/17 00:58:55;;;;;;;37.88;21.02;;;;;;;9.63;70.31;101164.25;1780789;79;20908;-66
2021/09/17 01:01:22;;;;;;;35.20;22.60;;;;;;;9.66;70.06;101164.56;1781121;80;21486;-67
2021/09/17 01:03:49;;;;;;;34.88;22.13;;;;;;;9.66;69.82;101165.40;1780824;79;20911;-67
2021/09/17 01:06:15;;;;;;;34.75;22.52;;;;;;;9.65;69.66;101161.10;1780831;80;20888;-66
2021/09/17 01:08:42;;;;;;;35.63;20.15;;;;;;;9.62;69.68;101163.84;1780792;80;21106;-67
2021/09/17 01:11:12;;;;;;;34.48;19.92;;;;;;;9.56;69.78;101156.30;1780760;80;21381;-66
2021/09/17 01:13:39;;;;;;;38.42;21.27;;;;;;;9.47;69.96;101151.03;1780939;80;20918;-66
2021/09/17 01:16:08;;;;;;;42.98;21.07;;;;;;;9.42;70.34;101152.16;1743870;82;20916;-66
2021/09/17 01:18:37;;;;;;;42.48;20.05;;;;;;;9.37;70.47;101158.08;1743783;81;20979;-67
2021/09/17 01:21:05;;;;;;;33.13;20.57;;;;;;;9.33;70.77;101147.73;1717432;83;21082;-66
2021/09/17 01:23:32;;;;;;;38.88;19.37;;;;;;;9.30;70.97;101149.66;1780783;80;20907;-66
2021/09/17 01:25:59;;;;;;;39.40;20.68;;;;;;;9.29;71.05;101146.20;1781031;80;21376;-66
2021/09/17 01:28:31;;;;;;;34.25;19.73;;;;;;;9.31;71.25;101144.80;1780646;80;21505;-66
2021/09/17 01:31:00;;;;;;;36.40;21.43;;;;;;;9.32;71.04;101136.88;1743979;82;20892;-66
2021/09/17 01:33:28;;;;;;;30.95;18.65;;;;;;;9.33;70.79;101132.02;1743609;82;20983;-66
2021/09/17 01:36:02;;;;;;;35.17;19.48;;;;;;;9.32;70.61;101130.34;1717136;83;20990;-67
2021/09/17 01:38:30;;;;;;;33.05;21.45;;;;;;;9.31;70.46;101127.31;1723230;83;20865;-66
2021/09/17 01:40:57;;;;;;;32.05;20.92;;;;;;;9.29;70.44;101129.62;1722778;82;20937;-66
2021/09/17 01:43:26;;;;;;;35.35;19.45;;;;;;;9.23;70.50;101120.77;1741996;82;20948;-66
2021/09/17 01:45:54;;;;;;;33.55;19.60;;;;;;;9.17;70.81;101121.89;1741923;82;21422;-66
2021/09/17 01:48:22;;;;;;;30.75;17.60;;;;;;;9.16;70.90;101118.02;1741952;82;20850;-66
2021/09/17 01:50:50;;;;;;;34.10;20.60;;;;;;;9.12;71.08;101116.02;1741951;82;21363;-66
2021/09/17 01:53:17;;;;;;;34.40;21.23;;;;;;;9.12;71.11;101113.41;1742092;82;21531;-66
2021/09/17 01:55:44;;;;;;;32.30;18.45;;;;;;;9.11;70.97;101106.46;1742090;82;20962;-66
2021/09/17 01:58:11;;;;;;;29.63;18.55;;;;;;;9.08;71.01;101106.62;1742091;82;21189;-66
2021/09/17 02:00:37;;;;;;;51.83;20.00;;;;;;;9.07;70.93;101107.08;1741927;82;21562;-65
2021/09/17 02:03:06;;;;;;;32.15;17.98;;;;;;;9.05;70.97;101102.84;1741912;82;20929;-65
2021/09/17 02:05:33;;;;;;;35.43;19.05;;;;;;;9.02;71.01;101102.97;1742060;82;21367;-66
2021/09/17 02:07:59;;;;;;;36.00;19.25;;;;;;;8.97;71.20;101108.41;1742008;82;20905;-66
2021/09/17 02:10:26;;;;;;;36.88;18.90;;;;;;;8.96;71.56;101103.23;1742124;82;21820;-65
2021/09/17 02:12:54;;;;;;;38.35;19.48;;;;;;;8.99;71.77;101099.19;1741823;82;21015;-65
2021/09/17 02:15:21;;;;;;;27.75;18.65;;;;;;;9.02;71.65;101097.73;1741849;82;20916;-66
2021/09/17 02:17:48;;;;;;;53.50;21.70;;;;;;;9.05;71.51;101090.61;1741883;82;20936;-65
2021/09/17 02:20:15;;;;;;;39.63;18.60;;;;;;;9.09;71.45;101090.86;1741980;82;21506;-67
2021/09/17 02:22:42;;;;;;;42.83;19.15;;;;;;;9.13;71.26;101085.84;1741830;82;21157;-66
2021/09/17 02:25:10;;;;;;;44.77;19.52;;;;;;;9.16;71.05;101086.19;1741819;82;20885;-65
2021/09/17 02:27:38;;;;;;;37.15;18.00;;;;;;;9.18;70.97;101080.42;1741878;82;20893;-66
2021/09/17 02:30:07;;;;;;;28.95;17.10;;;;;;;9.20;71.13;101077.72;1742026;82;21502;-66
2021/09/17 02:32:34;;;;;;;39.98;20.00;;;;;;;9.24;71.08;101081.42;1742122;82;21476;-65
2021/09/17 02:35:02;;;;;;;33.75;18.23;;;;;;;9.30;70.94;101081.61;1741895;82;21074;-66
2021/09/17 02:37:31;;;;;;;35.40;19.52;;;;;;;9.33;70.83;101081.45;1732564;82;20882;-65
2021/09/17 02:39:59;;;;;;;36.98;19.25;;;;;;;9.34;70.98;101080.08;1725333;83;20850;-65
2021/09/17 02:42:26;;;;;;;29.35;17.07;;;;;;;9.36;70.97;101079.14;1780861;80;21416;-66
2021/09/17 02:44:53;;;;;;;31.52;19.23;;;;;;;9.35;70.83;101078.30;1743836;82;21015;-66
2021/09/17 02:47:21;;;;;;;27.05;16.93;;;;;;;9.37;70.85;101076.93;1717466;83;21152;-66
2021/09/17 02:49:48;;;;;;;31.27;17.75;;;;;;;9.38;70.59;101074.69;1780789;80;20915;-66
2021/09/17 02:52:15;;;;;;;30.70;18.57;;;;;;;9.35;70.86;101071.76;1780750;80;20893;-66
2021/09/17 02:54:42;;;;;;;36.28;18.82;;;;;;;9.37;71.17;101070.39;1780772;80;21606;-65
2021/09/17 02:57:08;;;;;;;35.58;17.05;;;;;;;9.38;71.43;101075.53;1780940;80;20856;-65
2021/09/17 02:59:37;;;;;;;31.65;19.23;;;;;;;9.42;71.30;101070.54;1780641;80;20928;-65
2021/09/17 03:02:05;;;;;;;29.70;16.60;;;;;;;9.45;71.13;101071.72;1780720;80;20910;-66
2021/09/17 03:04:33;;;;;;;27.15;15.83;;;;;;;9.48;71.28;101072.87;1780734;80;20903;-66
2021/09/17 03:06:59;;;;;;;31.77;18.23;;;;;;;9.52;71.42;101077.04;1780900;80;21361;-65
2021/09/17 03:09:27;;;;;;;31.62;18.67;;;;;;;9.57;71.54;101072.05;1780808;80;20868;-66
2021/09/17 03:11:53;;;;;;;38.95;17.50;;;;;;;9.62;71.27;101066.11;1780726;80;21829;-65
2021/09/17 03:14:20;;;;;;;32.13;14.90;;;;;;;9.67;70.93;101074.15;1780631;80;20832;-66
2021/09/17 03:16:48;;;;;;;43.40;17.27;;;;;;;9.70;71.26;101069.22;1780674;79;20880;-66
2021/09/17 03:19:17;;;;;;;37.10;18.12;;;;;;;9.72;71.57;101066.91;1743566;81;21445;-65
2021/09/17 03:21:45;;;;;;;32.40;18.45;;;;;;;9.74;71.18;101070.30;1743686;82;20979;-66
2021/09/17 03:24:12;;;;;;;33.55;17.98;;;;;;;9.75;70.77;101079.84;1717443;83;21147;-67
2021/09/17 03:26:41;;;;;;;34.53;17.95;;;;;;;9.74;70.67;101084.70;1780789;80;20872;-66
2021/09/17 03:29:08;;;;;;;36.35;18.70;;;;;;;9.71;70.93;101078.28;1780957;80;20883;-67
2021/09/17 03:31:35;;;;;;;30.70;17.80;;;;;;;9.68;71.20;101081.06;1743682;82;20951;-67
2021/09/17 03:34:02;;;;;;;28.12;15.05;;;;;;;9.68;71.21;101072.38;1743709;82;21354;-67
2021/09/17 03:36:29;;;;;;;29.52;16.60;;;;;;;9.68;71.52;101078.45;1717559;83;21146;-66
2021/09/17 03:38:55;;;;;;;31.60;17.20;;;;;;;9.73;71.93;101079.53;1780544;80;20927;-66
2021/09/17 03:41:23;;;;;;;36.70;17.32;;;;;;;9.78;71.73;101076.22;1780662;80;20892;-67
2021/09/17 03:43:50;;;;;;;34.92;17.37;;;;;;;9.83;71.41;101079.48;1780730;79;20963;-68
2021/09/17 03:46:17;;;;;;;32.98;16.42;;;;;;;9.88;71.23;101082.70;1743762;82;21549;-67
2021/09/17 03:48:44;;;;;;;26.48;15.50;;;;;;;9.92;71.21;101082.11;1743600;81;21135;-67
2021/09/17 03:51:11;;;;;;;32.00;17.02;;;;;;;9.94;71.58;101076.33;1698924;83;20934;-66
2021/09/17 03:53:38;;;;;;;28.50;15.75;;;;;;;9.98;71.71;101079.16;1780743;80;20864;-66
2021/09/17 03:56:05;;;;;;;29.48;14.68;;;;;;;10.04;71.92;101081.94;1780700;80;21472;-65
2021/09/17 03:58:32;;;;;;;30.37;14.53;;;;;;;10.13;72.09;101087.55;1743739;82;20936;-65
2021/09/17 04:00:59;;;;;;;26.65;15.30;;;;;;;10.23;71.98;101084.50;1743774;82;21139;-65
2021/09/17 04:03:26;;;;;;;25.55;14.65;;;;;;;10.32;72.16;101086.67;1717385;83;20861;-66
2021/09/17 04:05:53;;;;;;;37.80;16.07;;;;;;;10.42;71.96;101083.09;1780671;80;20876;-66
2021/09/17 04:08:19;;;;;;;34.43;15.38;;;;;;;10.48;71.60;101080.16;1743654;82;21430;-66
2021/09/17 04:10:48;;;;;;;37.67;15.68;;;;;;;10.53;71.33;101084.70;1743553;82;20956;-65
2021/09/17 04:13:15;;;;;;;38.38;14.95;;;;;;;10.56;70.87;101082.77;1717554;82;22051;-66
2021/09/17 04:15:43;;;;;;;39.08;14.63;;;;;;;10.58;70.70;101078.30;1780630;80;20837;-66
2021/09/17 04:18:10;;;;;;;36.10;15.10;;;;;;;10.62;70.41;101078.13;1780757;79;20860;-67
2021/09/17 04:20:38;;;;;;;36.42;16.45;;;;;;;10.61;70.27;101074.66;1780730;80;21441;-67
2021/09/17 04:23:07;;;;;;;46.70;16.07;;;;;;;10.62;70.38;101071.56;1743688;81;20955;-67
2021/09/17 04:25:34;;;;;;;31.37;15.88;;;;;;;10.66;70.54;101073.10;1717597;83;21893;-67
2021/09/17 04:28:03;;;;;;;39.75;17.45;;;;;;;10.69;70.48;101070.30;1780740;80;20864;-68
2021/09/17 04:30:30;;;;;;;24.02;14.18;;;;;;;10.72;70.61;101073.63;1743772;82;20916;-67
2021/09/17 04:32:57;;;;;;;26.45;15.03;;;;;;;10.77;70.75;101070.28;1717511;83;20953;-67
2021/09/17 04:35:26;;;;;;;23.57;13.78;;;;;;;10.84;70.85;101069.48;1780991;79;20936;-66
2021/09/17 04:37:56;;;;;;;34.88;13.95;;;;;;;10.94;71.01;101069.38;1783233;80;21115;-67
2021/09/17 04:40:23;;;;;;;58.90;19.67;;;;;;;11.07;71.21;101070.87;1786499;80;20923;-67
2021/09/17 04:42:51;;;;;;;37.08;15.60;;;;;;;11.24;70.92;101070.41;1786634;80;20875;-67
2021/09/17 04:45:18;;;;;;;48.52;15.93;;;;;;;11.40;70.68;101067.29;1786647;80;21457;-67
2021/09/17 04:47:45;;;;;;;40.70;14.93;;;;;;;11.61;70.40;101068.71;1786607;79;20978;-67
2021/09/17 04:50:13;;;;;;;30.82;12.00;;;;;;;12.03;70.28;101065.88;1786857;80;21888;-68
2021/09/17 04:52:40;;;;;;;36.70;14.23;;;;;;;12.73;69.21;101063.02;1786414;80;20876;-66
2021/09/17 04:55:09;;;;;;;30.65;12.13;;;;;;;13.62;67.44;101054.25;1786592;80;21020;-67
2021/09/17 04:57:36;;;;;;;48.95;14.75;;;;;;;14.55;65.32;101056.81;1786583;79;20883;-66
2021/09/17 05:00:07;;;;;;;36.80;12.50;;;;;;;15.46;62.76;101052.98;1786725;80;20959;-67
2021/09/17 05:02:34;;;;;;;42.23;13.22;;;;;;;16.29;60.26;101048.08;1786897;80;21254;-88
2021/09/17 05:05:00;;;;;;;32.15;13.83;;;;;;;17.02;57.84;101043.28;1787484;80;20908;-83
2021/09/17 05:07:33;;;;;;;25.57;11.57;;;;;;;17.65;56.25;101038.13;1786757;79;20896;-82
2021/09/17 05:10:01;;;;;;;46.40;14.18;;;;;;;18.30;54.27;101041.05;1786432;80;20952;-80
2021/09/17 05:12:29;;;;;;;60.52;14.03;;;;;;;18.92;52.76;101044.54;1786704;80;20832;-82
2021/09/17 05:14:57;;;;;;;36.00;13.68;;;;;;;19.49;51.14;101043.91;1786524;80;21758;-84
2021/09/17 05:17:26;;;;;;;51.50;13.80;;;;;;;19.93;49.76;101053.16;1786622;80;20974;-83
2021/09/17 05:19:54;;;;;;;31.82;12.28;;;;;;;20.31;48.81;101046.06;1786803;80;20895;-87
2021/09/17 05:22:25;;;;;;;22.45;10.60;;;;;;;20.53;47.78;101050.20;1786855;80;21057;-86
2021/09/17 05:24:52;;;;;;;31.45;11.45;;;;;;;20.74;46.62;101055.81;1786826;80;20884;-83
2021/09/17 05:27:21;;;;;;;22.70;10.53;;;;;;;20.99;46.56;101055.64;1786556;80;20868;-82
2021/09/17 05:29:48;;;;;;;18.52;8.00;;;;;;;21.40;45.74;101054.72;1786853;80;20926;-90
2021/09/17 05:32:17;;;;;;;17.30;9.70;;;;;;;21.83;42.78;101051.78;1787206;80;20848;-85
2021/09/17 05:34:44;;;;;;;14.93;9.08;;;;;;;22.37;42.09;101056.53;1787630;80;21294;-85
2021/09/17 05:37:11;;;;;;;22.95;10.95;;;;;;;22.88;41.42;101051.25;1786554;79;20828;-80
2021/09/17 05:39:39;;;;;;;11.97;6.28;;;;;;;23.36;39.62;101050.54;1781147;80;21541;-80
2021/09/17 05:42:07;;;;;;;19.32;6.30;;;;;;;23.83;38.72;101049.59;1780745;80;20923;-81
2021/09/17 05:44:34;;;;;;;13.90;5.67;;;;;;;24.26;37.50;101057.75;1780793;80;20951;-82
2021/09/17 05:47:03;;;;;;;12.78;6.15;;;;;;;24.73;36.44;101048.08;1780587;79;20896;-83
2021/09/17 05:49:32;;;;;;;26.55;21.35;;;;;;;25.19;35.19;101049.52;1780937;80;20903;-81
2021/09/17 05:51:59;;;;;;;13.50;6.15;;;;;;;25.65;34.49;101050.87;1744001;82;21193;-82
2021/09/17 05:54:28;;;;;;;12.10;5.80;;;;;;;26.09;33.50;101042.11;1714551;82;20955;-82
2021/09/17 05:56:55;;;;;;;15.58;5.60;;;;;;;26.52;32.52;101052.23;1720295;81;21025;-84
2021/09/17 05:59:21;;;;;;;12.13;5.47;;;;;;;26.87;31.93;101042.05;1784308;78;20833;-80
2021/09/17 06:01:48;;;;;;;11.78;5.17;;;;;;;27.28;30.96;101045.55;1784360;79;20916;-82
2021/09/17 06:04:17;;;;;;;15.75;6.12;;;;;;;27.69;30.21;101046.74;1784192;78;20931;-83
2021/09/17 06:06:46;;;;;;;11.10;4.83;;;;;;;28.00;29.41;101046.39;1784376;79;20873;-84
2021/09/17 06:09:14;;;;;;;20.90;12.33;;;;;;;28.26;29.18;101044.39;1783136;80;20916;-85
2021/09/17 06:11:42;;;;;;;11.65;6.00;;;;;;;28.49;28.75;101039.25;1743958;82;21386;-86
2021/09/17 06:14:11;;;;;;;7.67;4.20;;;;;;;28.74;27.96;101042.27;1743910;82;20901;-86
2021/09/17 06:16:39;;;;;;;11.43;5.00;;;;;;;29.02;27.50;101039.98;1715474;83;20933;-86
2021/09/17 06:19:06;;;;;;;8.55;4.30;;;;;;;29.33;27.22;101030.83;1725372;81;20948;-84
2021/09/17 06:21:34;;;;;;;11.35;4.65;;;;;;;29.57;26.88;101033.97;1725282;83;21019;-67
2021/09/17 06:24:02;;;;;;;7.62;4.65;;;;;;;29.85;25.88;101032.94;1725375;83;20904;-68
2021/09/17 06:26:33;;;;;;;8.78;4.45;;;;;;;30.10;25.46;101033.11;1725751;81;20865;-67
2021/09/17 06:29:01;;;;;;;8.23;3.80;;;;;;;30.43;25.36;101040.34;1780718;80;20975;-67
2021/09/17 06:31:28;;;;;;;14.78;4.75;;;;;;;30.58;25.25;101032.27;1751134;80;21408;-66
2021/09/17 06:33:55;;;;;;;6.12;3.65;;;;;;;30.69;24.85;101034.84;1780737;80;20951;-68
2021/09/17 06:36:22;;;;;;;12.63;4.12;;;;;;;30.89;24.80;101032.06;1780604;80;20892;-66
2021/09/17 06:38:49;;;;;;;15.78;4.08;;;;;;;31.02;24.67;101033.87;1780647;79;20892;-67
2021/09/17 06:41:16;;;;;;;15.80;4.78;;;;;;;31.09;23.17;101026.53;1780941;79;21505;-68
2021/09/17 06:43:44;;;;;;;8.43;4.62;;;;;;;31.12;24.05;101023.37;1780582;80;21016;-68
2021/09/17 06:46:11;;;;;;;8.38;3.95;;;;;;;31.32;24.05;101027.30;1780690;80;20836;-68
2021/09/17 06:48:38;;;;;;;9.58;3.77;;;;;;;31.55;23.31;101032.17;1780610;79;20967;-67
2021/09/17 06:51:06;;;;;;;8.60;4.15;;;;;;;31.82;21.51;101026.52;1780688;79;20923;-68
2021/09/17 06:53:33;;;;;;;7.42;4.28;;;;;;;32.05;21.44;101024.55;1780804;80;21188;-67
2021/09/17 06:56:00;;;;;;;12.33;4.28;;;;;;;32.26;21.59;101021.94;1780605;80;20925;-69
2021/09/17 06:58:35;;;;;;;16.80;5.40;;;;;;;32.40;21.52;101013.09;1780703;80;21075;-69
2021/09/17 07:00:59;;;;;;;11.22;4.70;;;;;;;32.57;20.42;101018.25;1779968;79;20900;-67
2021/09/17 07:03:27;;;;;;;9.10;3.70;;;;;;;32.75;20.85;101010.59;1780632;80;20828;-67
2021/09/17 07:05:54;;;;;;;12.50;4.20;;;;;;;32.78;20.21;101003.87;1780753;80;21068;-69
2021/09/17 07:08:20;;;;;;;12.60;4.25;;;;;;;32.88;20.70;101010.91;1780914;79;20880;-67
2021/09/17 07:10:48;;;;;;;12.20;3.87;;;;;;;33.00;19.96;101001.47;1780656;80;20966;-67
2021/09/17 07:13:16;;;;;;;14.33;5.10;;;;;;;33.14;20.15;101002.94;1780617;80;20971;-68
2021/09/17 07:15:43;;;;;;;8.58;4.28;;;;;;;33.30;20.37;101001.97;1780718;80;20896;-68
2021/09/17 07:18:12;;;;;;;12.00;4.75;;;;;;;33.38;19.11;101001.09;1780785;80;20911;-67
2021/09/17 07:20:41;;;;;;;10.58;4.78;;;;;;;33.46;18.35;100997.19;1780565;80;20915;-68
2021/09/17 07:23:08;;;;;;;7.97;4.20;;;;;;;33.56;18.18;101001.53;1780701;80;20953;-68
2021/09/17 07:25:36;;;;;;;10.18;4.12;;;;;;;33.68;17.94;100995.30;1780619;80;20970;-69
2021/09/17 07:28:03;;;;;;;8.45;4.37;;;;;;;33.82;18.39;100999.45;1780512;79;21310;-67
2021/09/17 07:30:31;;;;;;;6.53;4.33;;;;;;;33.91;18.13;100995.30;1780648;80;21140;-69
2021/09/17 07:32:58;;;;;;;10.98;4.45;;;;;;;33.97;17.43;100992.14;1780591;80;21485;-68
2021/09/17 07:35:25;;;;;;;9.45;3.98;;;;;;;34.01;17.49;100987.88;1780595;79;21381;-69
2021/09/17 07:37:53;;;;;;;9.55;4.50;;;;;;;34.02;17.89;100987.65;1780503;79;20923;-68
2021/09/17 07:40:21;;;;;;;15.30;4.47;;;;;;;34.06;18.78;100982.02;1780775;80;20907;-67
2021/09/17 07:42:48;;;;;;;5.75;3.27;;;;;;;34.10;18.63;100980.99;1780630;80;21506;-66
2021/09/17 07:45:16;;;;;;;14.43;3.62;;;;;;;34.22;17.94;100979.12;1780715;80;20916;-68
2021/09/17 07:47:44;;;;;;;11.93;3.33;;;;;;;34.28;17.17;100975.95;1780500;80;20875;-67
2021/09/17 07:50:12;;;;;;;7.28;3.02;;;;;;;34.28;18.14;100975.95;1780516;80;20903;-68
2021/09/17 07:52:39;;;;;;;5.72;3.15;;;;;;;34.38;18.55;100982.16;1781022;80;20923;-68
2021/09/17 07:55:08;;;;;;;6.80;4.12;;;;;;;34.44;17.34;100976.56;1780596;80;21413;-67
2021/09/17 07:57:35;;;;;;;8.63;4.60;;;;;;;34.51;17.31;100970.98;1781026;80;20966;-69
2021/09/17 08:00:04;;;;;;;8.48;4.37;;;;;;;34.60;17.26;100972.23;1780801;80;21394;-67
2021/09/17 08:02:33;;;;;;;6.83;4.05;;;;;;;34.68;17.35;100964.22;1780096;79;21555;-68
2021/09/17 08:05:00;;;;;;;11.28;5.00;;;;;;;34.71;18.23;100963.75;1780800;79;20844;-67
2021/09/17 08:07:28;;;;;;;10.72;5.17;;;;;;;34.75;17.89;100951.30;1780735;80;20903;-68
2021/09/17 08:09:55;;;;;;;6.37;3.42;;;;;;;34.82;17.12;100962.05;1780801;80;21381;-68
2021/09/17 08:12:24;;;;;;;6.75;4.17;;;;;;;34.95;16.82;100957.65;1780734;79;20915;-69
2021/09/17 08:14:51;;;;;;;9.43;3.62;;;;;;;35.02;16.40;100958.84;1780757;80;21401;-68
2021/09/17 08:17:19;;;;;;;7.33;3.62;;;;;;;34.98;17.15;100954.95;1780990;80;20833;-67
2021/09/17 08:19:47;;;;;;;6.28;2.95;;;;;;;35.00;17.33;100958.27;1780867;80;21543;-67
2021/09/17 08:22:14;;;;;;;7.67;3.77;;;;;;;34.93;17.12;100954.34;1780876;80;21399;-68
2021/09/17 08:24:41;;;;;;;5.58;3.10;;;;;;;35.00;17.13;100944.09;1780852;80;20864;-69
2021/09/17 08:27:09;;;;;;;9.93;3.95;;;;;;;35.13;17.24;100943.49;1781077;79;20969;-72
2021/09/17 08:29:36;;;;;;;7.67;3.22;;;;;;;35.16;17.53;100945.74;1781109;79;20975;-69
2021/09/17 08:32:05;;;;;;;8.20;3.52;;;;;;;35.16;17.30;100943.84;1781175;80;21552;-70
2021/09/17 08:34:32;;;;;;;8.65;3.62;;;;;;;35.24;17.18;100937.98;1780683;79;21346;-69
2021/09/17 08:36:59;;;;;;;8.10;3.20;;;;;;;35.36;16.65;100941.97;1780950;79;20837;-71
2021/09/17 08:39:26;;;;;;;4.62;3.17;;;;;;;35.46;16.76;100939.92;1783813;80;20955;-70
2021/09/17 08:41:53;;;;;;;5.47;3.37;;;;;;;35.51;16.95;100935.92;1786632;80;20824;-68
2021/09/17 08:44:20;;;;;;;7.67;3.40;;;;;;;35.54;17.10;100928.59;1786654;79;21106;-70
2021/09/17 08:46:48;;;;;;;6.95;3.50;;;;;;;35.58;16.35;100934.38;1786429;80;20915;-72
2021/09/17 08:49:14;;;;;;;6.35;3.92;;;;;;;35.55;16.41;100928.05;1786323;80;20963;-70
2021/09/17 08:51:45;;;;;;;7.15;3.52;;;;;;;35.56;16.15;100928.34;1786592;80;20987;-70
2021/09/17 08:54:12;;;;;;;6.75;4.17;;;;;;;35.53;16.27;100926.10;1786857;80;20936;-72
2021/09/17 08:56:39;;;;;;;6.78;3.83;;;;;;;35.53;16.17;100925.59;1786550;80;22163;-72
2021/09/17 08:59:07;;;;;;;6.15;4.33;;;;;;;35.55;17.09;100920.67;1786447;80;21475;-75
2021/09/17 09:01:36;;;;;;;86.20;10.85;;;;;;;35.46;16.23;100923.55;1786905;80;20876;-74
2021/09/17 09:04:07;;;;;;;7.55;4.65;;;;;;;35.38;16.06;100914.45;1786577;80;20939;-72
2021/09/17 09:06:42;;;;;;;7.97;4.50;;;;;;;35.35;16.16;100908.96;1786775;80;21602;-71
2021/09/17 09:09:17;;;;;;;10.08;4.55;;;;;;;35.36;16.28;100906.52;1786860;79;21121;-70
2021/09/17 09:11:48;;;;;;;8.03;4.28;;;;;;;35.19;16.59;100899.70;1787086;79;20887;-71
2021/09/17 09:14:15;;;;;;;10.53;3.08;;;;;;;35.01;16.72;100902.12;1786654;79;20966;-75
2021/09/17 09:16:49;;;;;;;4.53;2.90;;;;;;;35.00;16.72;100890.94;1787125;80;21346;-70
2021/09/17 09:19:38;;;;;;;6.53;3.00;;;;;;;35.01;16.60;100891.75;1787091;79;20970;-69
2021/09/17 09:22:09;;;;;;;7.87;3.00;;;;;;;35.04;16.36;100900.28;1787256;80;21120;-71
2021/09/17 09:24:42;;;;;;;7.85;3.12;;;;;;;35.02;16.69;100896.15;1788821;80;20923;-71
2021/09/17 09:27:14;;;;;;;4.75;3.02;;;;;;;35.05;16.75;100891.01;1789390;80;20954;-69
2021/09/17 09:29:43;;;;;;;3.70;2.75;;;;;;;35.14;17.06;100887.91;1788469;80;20855;-70
2021/09/17 09:32:28;;;;;;;6.33;2.83;;;;;;;35.19;17.23;100887.43;1787056;80;20975;-70
2021/09/17 09:34:57;;;;;;;6.15;3.10;;;;;;;35.28;16.94;100883.75;1786627;79;21179;-70
2021/09/17 09:37:33;;;;;;;6.65;2.50;;;;;;;35.35;16.89;100884.93;1786550;80;20954;-72
2021/09/17 09:40:07;;;;;;;8.08;3.35;;;;;;;35.49;16.68;100879.42;1782580;80;20874;-70
2021/09/17 09:42:44;;;;;;;6.87;2.60;;;;;;;35.61;16.31;100879.30;1780671;80;21009;-71
2021/09/17 09:45:20;;;;;;;7.80;2.45;;;;;;;35.67;16.59;100880.51;1780771;80;21354;-71
2021/09/17 09:47:54;;;;;;;4.83;2.40;;;;;;;35.69;16.31;100876.17;1780834;80;21127;-70
2021/09/17 09:50:27;;;;;;;6.58;2.83;;;;;;;35.54;16.34;100873.20;1781141;80;20899;-71
2021/09/17 09:53:03;;;;;;;7.37;2.72;;;;;;;35.37;16.89;100868.59;1780761;79;20891;-70
2021/09/17 09:55:30;;;;;;;7.87;2.90;;;;;;;35.37;16.95;100865.05;1780624;79;20935;-71
2021/09/17 09:57:57;;;;;;;7.30;2.65;;;;;;;35.43;16.79;100862.69;1780625;79;21471;-69
2021/09/17 10:00:24;;;;;;;4.80;2.90;;;;;;;35.43;16.25;100862.69;1780934;80;21141;-69
2021/09/17 10:02:51;;;;;;;4.42;3.22;;;;;;;35.38;16.67;100862.08;1780674;80;20924;-72
2021/09/17 10:05:25;;;;;;;5.42;2.40;;;;;;;35.44;16.42;100856.99;1780701;79;20943;-70
2021/09/17 10:07:49;;;;;;;5.53;2.85;;;;;;;35.42;16.59;100859.14;1780183;80;20939;-69
2021/09/17 10:10:17;;;;;;;7.90;2.60;;;;;;;35.23;16.55;100849.05;1726347;79;20982;-70
2021/09/17 10:12:46;;;;;;;3.25;2.52;;;;;;;35.14;17.09;100851.09;1780724;80;21113;-70
2021/09/17 10:15:14;;;;;;;10.60;3.12;;;;;;;34.95;16.25;100851.34;1780852;80;20864;-68
2021/09/17 10:17:41;;;;;;;5.97;2.50;;;;;;;34.78;16.76;100837.70;1780659;79;20880;-68
2021/09/17 10:20:09;;;;;;;10.72;2.62;;;;;;;34.63;16.31;100839.64;1780728;79;20915;-69
2021/09/17 10:22:47;;;;;;;8.73;3.22;;;;;;;34.64;17.02;100837.22;1780576;79;21083;-68
2021/09/17 10:25:20;;;;;;;4.90;3.02;;;;;;;34.72;17.04;100832.42;1780628;80;20872;-70
2021/09/17 10:28:08;;;;;;;12.55;3.25;;;;;;;34.84;16.93;100834.00;1780525;80;20920;-67
2021/09/17 10:30:40;;;;;;;5.60;2.67;;;;;;;34.97;17.00;100832.81;1780490;80;20975;-69
2021/09/17 10:33:25;;;;;;;4.55;2.58;;;;;;;35.05;16.67;100835.67;1780563;79;20931;-67
2021/09/17 10:35:54;;;;;;;14.28;9.18;;;;;;;35.06;16.73;100829.98;1780602;80;20935;-69
2021/09/17 10:38:30;;;;;;;7.53;3.45;;;;;;;34.92;17.01;100823.75;1780583;79;21387;-69
2021/09/17 10:41:06;;;;;;;9.10;4.65;;;;;;;34.79;16.80;100811.28;1780558;80;21532;-73
2021/09/17 10:43:47;;;;;;;7.72;4.20;;;;;;;34.78;16.86;100809.09;1780629;80;20868;-68
2021/09/17 10:46:28;;;;;;;8.05;4.50;;;;;;;34.83;16.36;100808.34;1750801;80;21422;-71
2021/09/17 10:48:58;;;;;;;10.63;4.62;;;;;;;34.60;16.94;100795.70;1780389;79;20872;-71
2021/09/17 10:51:40;;;;;;;7.22;3.27;;;;;;;34.36;17.46;100797.20;1780863;80;21236;-71
2021/09/17 10:54:13;;;;;;;8.53;4.28;;;;;;;34.38;17.58;100795.61;1780578;80;20976;-72
2021/09/17 10:56:59;;;;;;;7.35;3.50;;;;;;;34.42;17.68;100795.41;1780941;80;20998;-70
2021/09/17 10:59:27;;;;;;;5.40;3.02;;;;;;;34.46;17.03;100789.73;1780543;80;20983;-70
2021/09/17 11:02:00;;;;;;;5.55;2.67;;;;;;;34.50;17.14;100786.81;1781064;80;20928;-71
2021/09/17 11:04:38;;;;;;;4.30;2.37;;;;;;;34.55;16.79;100786.91;1780682;80;21139;-69
2021/09/17 11:07:27;;;;;;;8.05;1.87;;;;;;;34.58;16.78;100788.31;1780477;80;21010;-72
2021/09/17 11:09:55;;;;;;;4.42;2.27;;;;;;;34.61;16.83;100777.73;1780720;80;20887;-72
2021/09/17 11:12:32;;;;;;;5.35;1.95;;;;;;;34.61;17.07;100779.63;1780587;80;21011;-72
2021/09/17 11:15:07;;;;;;;4.35;1.87;;;;;;;34.53;16.76;100769.14;1780694;80;20963;-71
2021/09/17 11:17:39;;;;;;;5.30;2.40;;;;;;;34.36;17.06;100766.44;1780696;80;20997;-72
2021/09/17 11:20:12;;;;;;;3.90;2.37;;;;;;;34.13;17.34;100768.23;1780924;79;21390;-71
2021/09/17 11:23:05;;;;;;;5.73;2.37;;;;;;;33.99;17.50;100760.03;1780812;80;20992;-73
2021/09/17 11:25:36;;;;;;;11.18;2.98;;;;;;;33.76;18.05;100753.63;1780675;80;21095;-72
2021/09/17 11:28:29;;;;;;;4.17;2.40;;;;;;;33.43;18.47;100752.94;1780555;79;20860;-71